Time;durP1;ratioP1;P1;durP2;ratioP2;P2;SDS_P1;SDS_P2;PMS_P1;PMS_P2;Temp;Humidity;BMP_temperature;BMP_pressure;BME280_temperature;BME280_humidity;BME280_pressure;Samples;Min_cycle;Max_cycle;Signal;HPM_P1;HPM_P2
2022/10/04 00:00:09;;;;;;;;;;;;;;;15.29;65.34;102415.00;5075946;28;20054;-78
2022/10/04 00:02:36;;;;;;;;;;;;;;;15.27;65.28;102410.59;5079256;28;19917;-79
2022/10/04 00:05:07;;;;;;;;;;;;;;;15.25;65.38;102412.38;5079787;28;19912;-79
2022/10/04 00:07:38;;;;;;;;;;;;;;;15.23;65.45;102411.50;5078101;28;19924;-79
2022/10/04 00:10:17;;;;;;;;;;;;;;;15.22;65.61;102407.09;5080757;28;20304;-79
2022/10/04 00:12:47;;;;;;;;;;;;;;;15.21;65.60;102398.19;5079504;28;19957;-79
2022/10/04 00:15:33;;;;;;;;;;;;;;;15.20;65.80;102400.00;5066612;28;20052;-78
2022/10/04 00:18:19;;;;;;;;;;;;;;;15.19;65.96;102400.88;5077374;28;19959;-79
2022/10/04 00:26:04;;;;;;;;;;;;;;;15.22;66.10;102407.97;5118407;27;19920;-78
2022/10/04 00:31:09;;;;;;;;;;;;;;;15.27;66.01;102399.91;5067439;27;19924;-78
2022/10/04 00:44:38;;;;;;;;;;;;;;;15.22;65.81;102399.09;5045891;28;19940;-78
2022/10/04 00:47:22;;;;;;;;;;;;;;;15.17;66.25;102392.00;5035162;28;19933;-78
2022/10/04 00:49:51;;;;;;;;;;;;;;;15.17;65.87;102381.34;5035673;28;19921;-78
2022/10/04 00:52:21;;;;;;;;;;;;;;;15.17;65.83;102386.66;5034590;28;20324;-78
2022/10/04 00:54:50;;;;;;;;;;;;;;;15.13;65.98;102390.31;5033301;28;19920;-79
2022/10/04 00:57:21;;;;;;;;;;;;;;;15.11;65.78;102397.44;5038010;28;19967;-78
2022/10/04 00:59:52;;;;;;;;;;;;;;;15.06;65.64;102401.97;5034567;28;19925;-78
2022/10/04 01:02:20;;;;;;;;;;;;;;;15.05;65.82;102397.53;5034797;28;19925;-78
2022/10/04 01:04:50;;;;;;;;;;;;;;;15.02;65.88;102394.91;5038026;28;20053;-78
2022/10/04 01:07:21;;;;;;;;;;;;;;;14.99;65.95;102393.16;5035980;28;19924;-78
2022/10/04 01:09:52;;;;;;;;;;;;;;;14.95;66.06;102379.88;5035546;28;19956;-78
2022/10/04 01:12:25;;;;;;;;;;;;;;;14.88;65.82;102366.63;5046826;28;19928;-78
2022/10/04 01:17:30;;;;;;;;;;;;;;;14.78;66.05;102367.66;5066063;27;19928;-78
2022/10/04 01:19:56;;;;;;;;;;;;;;;14.74;65.90;102365.03;5057381;28;19917;-78
2022/10/04 01:22:32;;;;;;;;;;;;;;;14.68;65.97;102360.69;5058444;28;20391;-78
2022/10/04 01:24:58;;;;;;;;;;;;;;;14.62;65.93;102355.38;5060103;28;19924;-78
2022/10/04 01:30:11;;;;;;;;;;;;;;;14.49;66.21;102349.31;5066523;27;19917;-78
2022/10/04 01:32:38;;;;;;;;;;;;;;;14.45;66.26;102359.13;5068463;28;20023;-78
2022/10/04 01:35:05;;;;;;;;;;;;;;;14.41;66.09;102349.41;5065000;28;19967;-78
2022/10/04 01:37:32;;;;;;;;;;;;;;;14.37;66.11;102350.34;5065986;28;19939;-78
2022/10/04 01:39:58;;;;;;;;;;;;;;;14.30;66.57;102353.97;5065161;28;19921;-78
2022/10/04 01:42:34;;;;;;;;;;;;;;;14.29;66.24;102338.88;5064262;28;19924;-78
2022/10/04 01:45:06;;;;;;;;;;;;;;;14.22;66.56;102330.09;5064898;28;20352;-78
2022/10/04 01:47:36;;;;;;;;;;;;;;;14.19;66.45;102320.34;5067257;28;19917;-78
2022/10/04 01:50:07;;;;;;;;;;;;;;;14.15;66.37;102320.38;5066312;28;19952;-79
2022/10/04 01:52:38;;;;;;;;;;;;;;;14.10;66.83;102309.78;5065390;28;20279;-78
2022/10/04 01:55:07;;;;;;;;;;;;;;;14.08;66.64;102306.22;5063562;28;20361;-78
2022/10/04 01:57:37;;;;;;;;;;;;;;;14.03;67.09;102303.63;5065272;28;19925;-79
2022/10/04 02:00:05;;;;;;;;;;;;;;;14.03;66.73;102302.72;5067407;28;19917;-78
2022/10/04 02:02:35;;;;;;;;;;;;;;;14.00;66.62;102308.97;5068440;28;19917;-78
2022/10/04 02:05:02;;;;;;;;;;;;;;;13.99;66.52;102295.69;5066561;28;20460;-78
2022/10/04 02:07:31;;;;;;;;;;;;;;;13.96;66.58;102290.41;5063898;28;20373;-78
2022/10/04 02:10:00;;;;;;;;;;;;;;;13.94;66.62;102286.84;5061927;28;19921;-78
2022/10/04 02:12:27;;;;;;;;;;;;;;;13.93;66.48;102290.41;5066198;28;19924;-78
2022/10/04 02:14:54;;;;;;;;;;;;;;;13.90;66.61;102278.88;5065782;28;19917;-78
2022/10/04 02:17:22;;;;;;;;;;;;;;;13.90;66.44;102276.22;5064222;28;19917;-78
2022/10/04 02:19:49;;;;;;;;;;;;;;;13.86;66.47;102258.50;5062562;28;20354;-78
2022/10/04 02:22:15;;;;;;;;;;;;;;;13.84;66.75;102248.78;5066728;28;19970;-78
2022/10/04 02:24:42;;;;;;;;;;;;;;;13.82;66.71;102253.22;5067071;28;19924;-78
2022/10/04 02:27:08;;;;;;;;;;;;;;;13.81;66.67;102252.34;5059338;28;20003;-78
2022/10/04 02:29:35;;;;;;;;;;;;;;;13.80;66.54;102241.72;5081321;28;19921;-78
2022/10/04 02:34:49;;;;;;;;;;;;;;;13.72;66.75;102234.69;5087791;28;20276;-78
2022/10/04 02:37:17;;;;;;;;;;;;;;;13.69;67.03;102229.38;5084453;28;20355;-78
2022/10/04 02:39:46;;;;;;;;;;;;;;;13.65;67.13;102233.00;5083287;28;19923;-78
2022/10/04 02:42:17;;;;;;;;;;;;;;;13.62;67.20;102233.03;5070816;28;19923;-78
2022/10/04 02:44:48;;;;;;;;;;;;;;;13.59;67.22;102233.97;5073063;28;19920;-78
2022/10/04 02:50:00;;;;;;;;;;;;;;;13.56;66.73;102219.78;5076088;27;19921;-78
2022/10/04 02:52:30;;;;;;;;;;;;;;;13.54;66.77;102211.78;5066989;28;19920;-78
2022/10/04 02:55:01;;;;;;;;;;;;;;;13.51;67.27;102210.97;5064568;28;19925;-78
2022/10/04 02:57:28;;;;;;;;;;;;;;;13.47;67.17;102212.78;5069987;28;19972;-78
2022/10/04 03:00:14;;;;;;;;;;;;;;;13.44;67.17;102212.78;5067138;28;20357;-78
2022/10/04 03:02:41;;;;;;;;;;;;;;;13.43;67.26;102200.38;5068157;28;19916;-78
2022/10/04 03:05:10;;;;;;;;;;;;;;;13.36;67.77;102198.66;5067190;28;20412;-78
2022/10/04 03:07:38;;;;;;;;;;;;;;;13.35;67.52;102191.56;5068087;28;19932;-78
2022/10/04 03:10:07;;;;;;;;;;;;;;;13.35;67.38;102196.88;5067871;28;19917;-78
2022/10/04 03:12:33;;;;;;;;;;;;;;;13.32;67.47;102197.81;5065137;28;19925;-78
2022/10/04 03:14:59;;;;;;;;;;;;;;;13.30;67.59;102194.25;5067308;28;20300;-78
2022/10/04 03:17:26;;;;;;;;;;;;;;;13.30;67.26;102198.72;5061146;28;20381;-78
2022/10/04 03:19:52;;;;;;;;;;;;;;;13.29;67.15;102191.63;5065284;28;19963;-78
2022/10/04 03:22:18;;;;;;;;;;;;;;;13.26;67.51;102192.53;5064651;28;20490;-78
2022/10/04 03:24:46;;;;;;;;;;;;;;;13.23;67.43;102193.47;5068761;28;19928;-78
2022/10/04 03:27:15;;;;;;;;;;;;;;;13.21;67.36;102192.56;5065352;28;19923;-78
2022/10/04 03:29:42;;;;;;;;;;;;;;;13.18;67.15;102189.94;5066069;28;19921;-78
2022/10/04 03:32:11;;;;;;;;;;;;;;;13.15;67.04;102176.66;5066850;28;19931;-78
2022/10/04 03:34:38;;;;;;;;;;;;;;;13.12;66.88;102179.34;5068042;28;19923;-78
2022/10/04 03:37:06;;;;;;;;;;;;;;;13.09;67.30;102177.59;5066068;28;19978;-78
2022/10/04 03:39:36;;;;;;;;;;;;;;;13.09;66.87;102180.25;5065491;28;20415;-78
2022/10/04 03:42:04;;;;;;;;;;;;;;;13.08;67.32;102177.59;5067398;28;19940;-78
2022/10/04 03:44:31;;;;;;;;;;;;;;;13.06;66.90;102179.38;5068223;28;19920;-78
2022/10/04 03:46:58;;;;;;;;;;;;;;;13.02;66.81;102173.25;5065044;28;19952;-78
2022/10/04 03:49:31;;;;;;;;;;;;;;;13.00;67.06;102168.84;5080208;28;19921;-78
2022/10/04 03:51:58;;;;;;;;;;;;;;;13.00;67.31;102163.50;5085538;28;19920;-78
2022/10/04 03:54:26;;;;;;;;;;;;;;;12.98;67.51;102166.16;5087635;28;19917;-78
2022/10/04 03:56:53;;;;;;;;;;;;;;;12.97;67.47;102164.41;5085383;28;19951;-78
2022/10/04 03:59:22;;;;;;;;;;;;;;;12.97;67.38;102163.53;5086430;28;19923;-78
2022/10/04 04:01:55;;;;;;;;;;;;;;;12.97;67.45;102168.84;5068906;28;19956;-78
2022/10/04 04:04:29;;;;;;;;;;;;;;;12.95;67.31;102163.53;5073619;28;19963;-78
2022/10/04 04:07:00;;;;;;;;;;;;;;;12.94;67.82;102159.97;5074510;28;19942;-78
2022/10/04 04:09:46;;;;;;;;;;;;;;;12.94;67.43;102153.78;5072849;28;19924;-78
2022/10/04 04:12:15;;;;;;;;;;;;;;;12.91;68.04;102153.81;5074211;28;19920;-78
2022/10/04 04:14:42;;;;;;;;;;;;;;;12.89;67.84;102159.16;5075216;28;19960;-78
2022/10/04 04:17:28;;;;;;;;;;;;;;;12.87;67.57;102158.28;5068744;28;19970;-78
2022/10/04 04:19:57;;;;;;;;;;;;;;;12.86;67.71;102164.50;5072897;28;19916;-78
2022/10/04 04:22:23;;;;;;;;;;;;;;;12.86;67.82;102161.84;5075135;28;20288;-78
2022/10/04 04:24:50;;;;;;;;;;;;;;;12.86;67.84;102164.50;5073787;28;19921;-78
2022/10/04 04:27:16;;;;;;;;;;;;;;;12.86;68.06;102161.84;5074459;28;19946;-78
2022/10/04 04:32:23;;;;;;;;;;;;;;;12.87;67.64;102166.28;5078021;27;19917;-78
2022/10/04 04:34:51;;;;;;;;;;;;;;;12.87;67.96;102155.63;5064571;28;19921;-78
2022/10/04 04:37:18;;;;;;;;;;;;;;;12.87;67.70;102158.28;5057066;28;19927;-78
2022/10/04 04:39:48;;;;;;;;;;;;;;;12.87;67.63;102160.06;5057959;28;19917;-78
2022/10/04 04:42:17;;;;;;;;;;;;;;;12.88;67.93;102165.34;5060363;28;19917;-78
2022/10/04 04:44:49;;;;;;;;;;;;;;;12.86;67.88;102167.16;5065102;28;20059;-78
2022/10/04 04:47:22;;;;;;;;;;;;;;;12.89;67.97;102160.94;5058687;28;19917;-78
2022/10/04 04:49:49;;;;;;;;;;;;;;;12.86;68.15;102159.19;5052051;28;20011;-78
2022/10/04 04:52:16;;;;;;;;;;;;;;;12.87;67.57;102163.63;5059957;28;19928;-78
2022/10/04 04:54:45;;;;;;;;;;;;;;;12.85;67.78;102154.75;5061964;28;19974;-78
2022/10/04 04:57:15;;;;;;;;;;;;;;;12.85;67.96;102154.75;5053013;28;19924;-78
2022/10/04 04:59:44;;;;;;;;;;;;;;;12.85;67.58;102154.75;5061007;28;19923;-78
2022/10/04 05:02:26;;;;;;;;;;;;;;;12.84;67.65;102155.66;5057457;28;20007;-78
2022/10/04 05:05:12;;;;;;;;;;;;;;;12.82;68.20;102159.22;5056605;28;19921;-78
2022/10/04 05:07:41;;;;;;;;;;;;;;;12.81;67.90;102162.78;5056862;28;19971;-78
2022/10/04 05:10:26;;;;;;;;;;;;;;;12.79;68.33;102166.31;5053744;28;19923;-78
2022/10/04 05:12:53;;;;;;;;;;;;;;;12.78;67.75;102166.34;5058783;28;19928;-78
2022/10/04 05:15:19;;;;;;;;;;;;;;;12.78;68.28;102166.34;5053506;28;19960;-78
2022/10/04 05:17:45;;;;;;;;;;;;;;;12.76;68.02;102161.03;5050192;28;19952;-78
2022/10/04 05:20:12;;;;;;;;;;;;;;;12.76;68.20;102165.44;5057361;28;19970;-78
2022/10/04 05:22:40;;;;;;;;;;;;;;;12.76;68.02;102168.13;5056681;28;19917;-78
2022/10/04 05:25:12;;;;;;;;;;;;;;;12.75;68.38;102161.06;5051385;28;19963;-78
2022/10/04 05:27:39;;;;;;;;;;;;;;;12.73;68.41;102165.50;5054829;28;19917;-78
2022/10/04 05:30:15;;;;;;;;;;;;;;;12.72;68.58;102169.03;5064629;28;20383;-78
2022/10/04 05:33:01;;;;;;;;;;;;;;;12.71;68.30;102157.53;5076509;28;19995;-78
2022/10/04 05:35:28;;;;;;;;;;;;;;;12.71;68.10;102161.94;5071622;28;19924;-78
2022/10/04 05:37:58;;;;;;;;;;;;;;;12.68;68.50;102157.53;5079971;28;19999;-78
2022/10/04 05:40:43;;;;;;;;;;;;;;;12.68;68.03;102164.66;5084297;28;19957;-77
2022/10/04 05:43:29;;;;;;;;;;;;;;;12.66;68.49;102161.09;5070771;28;20457;-77
2022/10/04 05:46:15;;;;;;;;;;;;;;;12.64;68.21;102155.81;5064973;28;19921;-77
2022/10/04 05:48:42;;;;;;;;;;;;;;;12.64;68.09;102161.13;5066298;28;19916;-78
2022/10/04 05:51:17;;;;;;;;;;;;;;;12.61;67.79;102159.38;5065418;28;19925;-78
2022/10/04 05:53:43;;;;;;;;;;;;;;;12.59;68.22;102154.97;5071380;28;19920;-78
2022/10/04 05:56:29;;;;;;;;;;;;;;;12.57;67.96;102159.41;5066609;28;19924;-78
2022/10/04 05:59:03;;;;;;;;;;;;;;;12.53;68.12;102153.22;5066685;28;20296;-78
2022/10/04 06:01:35;;;;;;;;;;;;;;;12.49;68.16;102140.84;5065522;28;19924;-78
2022/10/04 06:04:21;;;;;;;;;;;;;;;12.48;68.32;102136.44;5064458;28;20065;-78
2022/10/04 06:07:07;;;;;;;;;;;;;;;12.45;68.30;102131.16;5066814;28;20080;-78
2022/10/04 06:15:12;;;;;;;;;;;;;;;12.46;67.99;102143.53;5071660;27;19963;-78
2022/10/04 06:17:51;;;;;;;;;;;;;;;12.43;68.40;102136.44;5076231;28;19948;-77
2022/10/04 06:23:05;;;;;;;;;;;;;;;12.44;68.10;102147.97;5083130;28;19920;-78
2022/10/04 06:25:35;;;;;;;;;;;;;;;12.44;68.98;102142.66;5073513;28;19959;-78
2022/10/04 06:30:59;;;;;;;;;;;;;;;12.44;69.01;102124.06;5078349;27;19931;-78
2022/10/04 06:36:21;;;;;;;;;;;;;;;12.43;69.36;102111.66;5079515;27;1880244;-78
2022/10/04 06:39:07;;;;;;;;;;;;;;;12.46;69.49;102114.28;5119718;28;19958;-78
2022/10/04 06:41:41;;;;;;;;;;;;;;;12.43;69.20;102099.22;5113921;28;19924;-81
2022/10/04 06:44:20;;;;;;;;;;;;;;;12.48;69.77;102101.00;5107729;28;20425;-79
2022/10/04 06:46:50;;;;;;;;;;;;;;;12.52;69.74;102103.59;5104899;28;20387;-79
2022/10/04 06:49:36;;;;;;;;;;;;;;;12.56;69.41;102105.38;5105600;28;19961;-79
2022/10/04 06:52:11;;;;;;;;;;;;;;;12.62;69.39;102110.63;5104288;28;19927;-78
2022/10/04 06:54:46;;;;;;;;;;;;;;;12.67;69.87;102113.22;5102760;28;20290;-79
2022/10/04 07:02:33;;;;;;;;;;;;;;;12.84;69.92;102121.06;5077946;27;19925;-79
2022/10/04 07:05:02;;;;;;;;;;;;;;;12.91;69.50;102117.47;5063153;28;19978;-79
2022/10/04 07:07:47;;;;;;;;;;;;;;;12.99;70.31;102111.19;5064872;28;19917;-80
2022/10/04 07:10:24;;;;;;;;;;;;;;;13.06;69.78;102115.53;5058579;28;19917;-81
2022/10/04 07:12:55;;;;;;;;;;;;;;;13.16;69.80;102116.31;5057403;28;20020;-80
2022/10/04 07:15:24;;;;;;;;;;;;;;;13.22;69.78;102111.84;5057687;28;19916;-80
2022/10/04 07:17:52;;;;;;;;;;;;;;;13.30;70.47;102108.22;5058819;28;19925;-80
2022/10/04 07:20:21;;;;;;;;;;;;;;;13.40;70.33;102109.91;5063060;28;19956;-80
2022/10/04 07:22:52;;;;;;;;;;;;;;;13.51;70.07;102108.00;5061597;28;19917;-80
2022/10/04 07:25:21;;;;;;;;;;;;;;;13.62;69.80;102104.31;5057799;28;19924;-80
2022/10/04 07:31:00;;;;;;;;;;;;;;;13.81;69.55;102113.84;5058379;28;19964;-80
2022/10/04 07:33:28;;;;;;;;;;;;;;;13.89;69.74;102114.63;5061639;28;19917;-79
2022/10/04 07:36:03;;;;;;;;;;;;;;;13.97;69.64;102118.94;5063414;28;19916;-80
2022/10/04 07:38:32;;;;;;;;;;;;;;;14.02;69.38;102111.78;5065111;28;19921;-80
2022/10/04 07:43:45;;;;;;;;;;;;;;;14.15;69.15;102115.16;5074262;27;19967;-80
2022/10/04 07:46:20;;;;;;;;;;;;;;;14.18;69.13;102121.31;5070772;28;19924;-80
2022/10/04 07:48:48;;;;;;;;;;;;;;;14.26;68.78;102112.34;5068372;28;19916;-80
2022/10/04 07:51:34;;;;;;;;;;;;;;;14.33;68.57;102113.97;5071463;28;19916;-80
2022/10/04 07:54:20;;;;;;;;;;;;;;;14.43;68.50;102123.63;5067971;28;19917;-80
2022/10/04 07:56:53;;;;;;;;;;;;;;;14.52;68.52;102118.13;5069610;28;19993;-80
2022/10/04 08:02:05;;;;;;;;;;;;;;;14.76;68.10;102128.47;5085045;27;19913;-80
2022/10/04 08:04:51;;;;;;;;;;;;;;;14.87;68.03;102122.00;5070888;28;20339;-80
2022/10/04 08:07:23;;;;;;;;;;;;;;;14.98;67.56;102118.31;5054381;28;20609;-80
2022/10/04 08:09:57;;;;;;;;;;;;;;;15.08;67.53;102118.97;5062984;28;20395;-80
2022/10/04 08:12:27;;;;;;;;;;;;;;;15.14;67.66;102117.09;5077226;28;19913;-81
2022/10/04 08:14:55;;;;;;;;;;;;;;;15.24;66.98;102114.25;5071608;28;19912;-80
2022/10/04 08:26:03;;;;;;;;;;;;;;;15.44;65.92;102130.78;5096225;27;1988011;-82
2022/10/04 08:31:54;;;;;;;;;;;;;;;15.56;65.85;102120.75;5146691;27;20304;-81
2022/10/04 08:34:29;;;;;;;;;;;;;;;15.67;65.51;102119.59;5137409;27;20035;-80
2022/10/04 08:45:05;;;;;;;;;;;;;;;16.15;64.32;102105.22;5091012;27;20394;-81
2022/10/04 08:47:48;;;;;;;;;;;;;;;16.25;63.66;102105.00;5063899;28;19967;-81
2022/10/04 08:53:28;;;;;;;;;;;;;;;16.31;63.27;102115.56;5074095;27;19912;-78
2022/10/04 08:58:51;;;;;;;;;;;;;;;16.26;63.30;102112.13;5071927;27;19920;-79
2022/10/04 09:01:37;;;;;;;;;;;;;;;16.25;63.22;102113.91;5063105;28;20328;-80
2022/10/04 09:04:23;;;;;;;;;;;;;;;16.26;63.24;102113.00;5058675;28;19923;-80
2022/10/04 09:07:09;;;;;;;;;;;;;;;16.24;63.26;102114.81;5059540;28;19917;-80
2022/10/04 09:09:54;;;;;;;;;;;;;;;16.26;62.68;102120.13;5070549;28;19958;-80
2022/10/04 09:12:33;;;;;;;;;;;;;;;16.27;62.96;102124.56;5069884;28;19927;-80
2022/10/04 09:15:08;;;;;;;;;;;;;;;16.31;63.28;102118.22;5060514;28;19913;-80
2022/10/04 09:17:41;;;;;;;;;;;;;;;16.42;63.11;102118.84;5064202;28;19966;-80
2022/10/04 09:20:31;;;;;;;;;;;;;;;16.54;63.12;102106.13;5069278;28;19919;-80
2022/10/04 09:23:19;;;;;;;;;;;;;;;16.64;62.83;102116.53;5072062;28;20050;-80
2022/10/04 09:25:49;;;;;;;;;;;;;;;16.85;62.78;102111.56;5072328;28;19917;-80
2022/10/04 09:28:21;;;;;;;;;;;;;;;16.92;62.22;102107.84;5071607;28;20368;-80
2022/10/04 09:31:07;;;;;;;;;;;;;;;17.02;61.45;102111.13;5071639;28;20386;-80
2022/10/04 09:33:52;;;;;;;;;;;;;;;17.11;61.25;102108.22;5071809;28;20348;-80
2022/10/04 09:36:29;;;;;;;;;;;;;;;17.15;60.79;102103.66;5071901;28;20268;-80
2022/10/04 09:41:41;;;;;;;;;;;;;;;17.28;59.95;102086.31;5072356;27;19970;-79
2022/10/04 10:00:00;;;;;;;;;;;;;;;18.22;57.51;102077.25;5088300;27;19913;-79
2022/10/04 10:05:37;;;;;;;;;;;;;;;18.41;56.75;102073.97;5089641;27;19970;-79
2022/10/04 10:08:23;;;;;;;;;;;;;;;18.47;55.83;102072.88;5075521;28;19961;-79
2022/10/04 10:14:01;;;;;;;;;;;;;;;18.47;55.96;102078.25;5075285;28;19917;-79
2022/10/04 10:16:39;;;;;;;;;;;;;;;18.46;56.23;102085.44;5087114;28;19913;-79
2022/10/04 10:19:25;;;;;;;;;;;;;;;18.55;56.53;102079.75;5082867;28;20490;-79
2022/10/04 10:22:02;;;;;;;;;;;;;;;18.70;56.38;102078.34;5071390;28;19940;-80
2022/10/04 10:24:40;;;;;;;;;;;;;;;18.80;55.66;102086.09;5079382;28;20003;-80
2022/10/04 10:27:26;;;;;;;;;;;;;;;18.71;54.79;102080.09;5080361;28;19935;-79
2022/10/04 10:32:42;;;;;;;;;;;;;;;19.06;54.72;102069.94;5096873;27;19961;-79
2022/10/04 10:37:56;;;;;;;;;;;;;;;19.07;53.69;102071.69;5101924;27;19916;-80
2022/10/04 10:40:30;;;;;;;;;;;;;;;19.01;54.13;102068.38;5091876;28;20421;-81
2022/10/04 10:43:17;;;;;;;;;;;;;;;18.93;54.15;102068.66;5092521;28;19917;-81
2022/10/04 10:45:52;;;;;;;;;;;;;;;18.84;54.37;102067.13;5096564;28;19991;-82
2022/10/04 10:51:19;;;;;;;;;;;;;;;18.80;54.89;102056.56;5088392;27;19919;-80
2022/10/04 10:54:05;;;;;;;;;;;;;;;18.95;54.85;102056.03;5064742;28;19927;-80
2022/10/04 10:56:51;;;;;;;;;;;;;;;19.05;54.50;102051.19;5067041;28;19919;-80
2022/10/04 10:59:37;;;;;;;;;;;;;;;19.16;53.64;102058.88;5070649;28;19979;-80
2022/10/04 11:04:54;;;;;;;;;;;;;;;19.56;53.57;102057.38;5072394;28;19926;-80
2022/10/04 11:07:31;;;;;;;;;;;;;;;19.80;52.88;102049.28;5065844;28;19943;-80
2022/10/04 11:10:10;;;;;;;;;;;;;;;20.04;52.49;102047.47;5069226;28;19916;-80
2022/10/04 11:18:19;;;;;;;;;;;;;;;20.59;50.42;102038.00;5084124;27;19916;-81
2022/10/04 11:23:44;;;;;;;;;;;;;;;20.85;50.10;102039.59;5117109;27;19912;-82
2022/10/04 11:26:25;;;;;;;;;;;;;;;20.98;48.18;102040.78;5109606;28;20404;-82
2022/10/04 11:29:09;;;;;;;;;;;;;;;20.99;46.83;102039.84;5110990;28;20562;-83
2022/10/04 11:31:55;;;;;;;;;;;;;;;21.09;46.96;102042.13;5116529;28;19912;-83
2022/10/04 11:34:41;;;;;;;;;;;;;;;21.10;47.62;102033.09;5107640;28;19916;-82
2022/10/04 11:37:27;;;;;;;;;;;;;;;20.93;46.19;102037.41;5104970;28;19939;-81
2022/10/04 11:40:13;;;;;;;;;;;;;;;20.84;47.61;102038.69;5113862;28;20023;-82
2022/10/04 11:42:48;;;;;;;;;;;;;;;20.78;47.23;102043.50;5107619;28;19916;-81
2022/10/04 11:45:26;;;;;;;;;;;;;;;20.72;47.53;102041.06;5102788;28;19912;-82
2022/10/04 11:51:02;;;;;;;;;;;;;;;20.61;48.30;102033.41;5074079;27;20445;-79
2022/10/04 12:01:37;;;;;;;;;;;;;;;20.40;47.93;102027.13;5109907;27;19912;-80
2022/10/04 12:04:19;;;;;;;;;;;;;;;20.44;48.44;102013.50;5111624;28;20340;-79
2022/10/04 12:07:07;;;;;;;;;;;;;;;20.42;48.73;102012.66;5109033;28;19922;-79
2022/10/04 12:15:24;;;;;;;;;;;;;;;20.66;49.76;102010.75;5119052;27;19968;-82
2022/10/04 12:18:11;;;;;;;;;;;;;;;20.83;49.19;102004.63;5133116;27;19927;-81
2022/10/04 12:20:57;;;;;;;;;;;;;;;21.00;48.78;101994.94;5113901;27;19916;-81
2022/10/04 12:23:43;;;;;;;;;;;;;;;21.13;48.48;101995.22;5119086;28;20029;-82
2022/10/04 12:26:31;;;;;;;;;;;;;;;21.27;49.18;101986.50;5120437;27;19912;-82
2022/10/04 12:29:17;;;;;;;;;;;;;;;21.41;48.65;101989.41;5113368;27;19990;-81
2022/10/04 12:31:45;;;;;;;;;;;;;;;21.50;47.55;101982.72;5114839;28;19912;-81
2022/10/04 12:34:18;;;;;;;;;;;;;;;21.47;47.44;101970.25;5118579;27;19989;-82
2022/10/04 12:39:33;;;;;;;;;;;;;;;21.58;47.73;101969.78;5080873;27;19975;-80
2022/10/04 12:42:13;;;;;;;;;;;;;;;21.72;47.48;101971.78;5070278;28;19967;-79
2022/10/04 12:44:59;;;;;;;;;;;;;;;21.83;47.06;101963.16;5060125;28;19912;-80
2022/10/04 12:47:34;;;;;;;;;;;;;;;21.88;46.42;101969.22;5071026;28;19924;-80
2022/10/04 12:50:21;;;;;;;;;;;;;;;22.00;46.67;101965.00;5059416;28;19917;-80
2022/10/04 12:52:53;;;;;;;;;;;;;;;22.09;46.80;101948.38;5069824;28;19986;-81
2022/10/04 12:55:39;;;;;;;;;;;;;;;22.22;46.79;101945.91;5060447;28;20518;-81
2022/10/04 12:58:12;;;;;;;;;;;;;;;22.28;45.63;101932.06;5076386;28;19917;-80
2022/10/04 13:00:41;;;;;;;;;;;;;;;22.34;46.29;101936.25;5072545;28;19917;-80
2022/10/04 13:03:28;;;;;;;;;;;;;;;22.42;46.79;101939.47;5060247;28;20154;-81
2022/10/04 13:06:14;;;;;;;;;;;;;;;22.33;45.46;101939.06;5066664;28;20009;-80
2022/10/04 13:08:47;;;;;;;;;;;;;;;22.33;45.44;101942.66;5071331;28;19967;-80
2022/10/04 13:11:33;;;;;;;;;;;;;;;22.25;45.22;101948.41;5072268;28;19920;-80
2022/10/04 13:19:36;;;;;;;;;;;;;;;22.33;46.53;101936.34;5085953;27;20452;-80
2022/10/04 13:22:21;;;;;;;;;;;;;;;22.32;46.67;101916.59;5086541;28;20430;-80
2022/10/04 13:25:07;;;;;;;;;;;;;;;22.38;47.05;101912.72;5090052;28;20363;-80
2022/10/04 13:27:53;;;;;;;;;;;;;;;22.43;46.61;101908.84;5075579;28;19921;-81
2022/10/04 13:35:54;;;;;;;;;;;;;;;22.53;46.69;101882.22;5086515;27;19921;-78
2022/10/04 13:38:30;;;;;;;;;;;;;;;22.51;46.00;101877.84;5088988;28;19978;-79
2022/10/04 13:41:16;;;;;;;;;;;;;;;22.53;46.33;101884.03;5087150;28;19916;-79
2022/10/04 13:46:45;;;;;;;;;;;;;;;22.57;46.89;101875.66;5078986;27;19966;-82
2022/10/04 13:58:24;;;;;;;;;;;;;;;22.94;46.05;101854.72;5133674;27;20360;-80
2022/10/04 14:03:39;;;;;;;;;;;;;;;23.00;46.40;101863.44;5089241;27;19917;-79
2022/10/04 14:06:25;;;;;;;;;;;;;;;23.01;46.59;101871.47;5089529;28;19916;-81
2022/10/04 14:09:12;;;;;;;;;;;;;;;22.91;46.21;101873.81;5089310;28;20472;-80
2022/10/04 14:11:48;;;;;;;;;;;;;;;22.90;46.23;101855.88;5083192;28;19936;-81
2022/10/04 14:17:13;;;;;;;;;;;;;;;22.91;47.08;101864.84;5124596;27;19913;-80
2022/10/04 14:22:36;;;;;;;;;;;;;;;22.78;46.71;101849.31;5133077;27;19918;-80
2022/10/04 14:25:22;;;;;;;;;;;;;;;22.75;47.13;101859.41;5133464;27;19923;-80
2022/10/04 14:27:57;;;;;;;;;;;;;;;22.60;47.18;101867.41;5113932;27;20395;-80
2022/10/04 14:30:36;;;;;;;;;;;;;;;22.72;47.26;101859.59;5113408;28;20382;-80
2022/10/04 14:33:22;;;;;;;;;;;;;;;22.77;47.49;101857.50;5112506;27;19947;-80
2022/10/04 14:36:00;;;;;;;;;;;;;;;22.80;47.41;101862.72;5112482;28;20390;-80
2022/10/04 14:38:46;;;;;;;;;;;;;;;22.85;47.30;101863.34;5113357;28;19916;-80
2022/10/04 14:41:32;;;;;;;;;;;;;;;22.73;47.61;101856.81;5112621;28;20371;-80
2022/10/04 14:44:16;;;;;;;;;;;;;;;22.68;47.92;101872.41;5113256;28;19916;-79
2022/10/04 14:46:50;;;;;;;;;;;;;;;22.55;47.93;101869.47;5112954;28;20333;-80
2022/10/04 14:49:36;;;;;;;;;;;;;;;22.45;48.04;101870.94;5113188;28;19912;-79
2022/10/04 14:57:40;;;;;;;;;;;;;;;22.32;48.89;101867.09;5092623;27;19912;-78
2022/10/04 15:00:10;;;;;;;;;;;;;;;22.19;48.75;101862.38;5092124;28;19920;-79
2022/10/04 15:02:47;;;;;;;;;;;;;;;22.19;49.47;101862.38;5092667;28;19912;-78
2022/10/04 15:05:33;;;;;;;;;;;;;;;22.14;49.24;101867.13;5092557;28;19919;-79
2022/10/04 15:08:19;;;;;;;;;;;;;;;22.09;49.73;101871.91;5092437;28;20383;-79
2022/10/04 15:11:03;;;;;;;;;;;;;;;22.00;49.67;101870.56;5092107;28;20283;-78
2022/10/04 15:13:33;;;;;;;;;;;;;;;21.87;50.51;101870.34;5092270;28;19919;-79
2022/10/04 15:16:04;;;;;;;;;;;;;;;21.92;50.21;101870.97;5092413;28;19962;-79
2022/10/04 15:18:37;;;;;;;;;;;;;;;21.88;50.83;101880.19;5089769;28;19944;-79
2022/10/04 15:21:11;;;;;;;;;;;;;;;21.80;50.53;101867.06;5072352;28;19965;-79
2022/10/04 15:23:41;;;;;;;;;;;;;;;21.76;51.28;101870.00;5072970;28;19936;-78
2022/10/04 15:29:04;;;;;;;;;;;;;;;21.65;51.23;101860.63;5090366;27;20303;-78
2022/10/04 15:34:28;;;;;;;;;;;;;;;21.55;51.38;101856.63;5091942;27;19912;-78
2022/10/04 15:37:02;;;;;;;;;;;;;;;21.56;51.50;101853.00;5092306;28;19923;-80
2022/10/04 15:47:39;;;;;;;;;;;;;;;21.50;51.86;101847.91;5092987;27;19912;-80
2022/10/04 15:53:19;;;;;;;;;;;;;;;21.33;52.30;101846.91;5072368;28;19959;-80
2022/10/04 15:58:36;;;;;;;;;;;;;;;21.19;53.00;101853.94;5091879;27;19923;-81
2022/10/04 16:01:23;;;;;;;;;;;;;;;21.14;53.11;101846.06;5092719;28;19930;-80
2022/10/04 16:04:09;;;;;;;;;;;;;;;21.03;53.39;101848.41;5072251;28;19917;-80
2022/10/04 16:12:18;;;;;;;;;;;;;;;20.89;53.93;101866.09;5082167;27;19916;-80
2022/10/04 16:14:55;;;;;;;;;;;;;;;20.82;53.96;101861.94;5080988;28;19917;-79
2022/10/04 16:20:06;;;;;;;;;;;;;;;20.75;54.43;101855.97;5076725;27;19966;-79
2022/10/04 16:22:33;;;;;;;;;;;;;;;20.69;54.36;101849.03;5091954;28;19922;-78
2022/10/04 16:25:19;;;;;;;;;;;;;;;20.64;54.68;101852.88;5090997;28;20338;-78
2022/10/04 16:27:57;;;;;;;;;;;;;;;20.55;54.50;101856.00;5091745;28;20309;-78
2022/10/04 16:30:28;;;;;;;;;;;;;;;20.56;54.98;101865.81;5092280;28;20295;-80
2022/10/04 16:35:37;;;;;;;;;;;;;;;20.46;55.40;101865.34;5089041;27;19924;-79
2022/10/04 16:41:00;;;;;;;;;;;;;;;20.47;54.82;101869.81;5080853;27;19917;-79
2022/10/04 16:43:27;;;;;;;;;;;;;;;20.42;55.73;101869.16;5069013;28;19917;-79
2022/10/04 16:48:54;;;;;;;;;;;;;;;20.34;55.35;101873.06;5067430;28;19916;-79
2022/10/04 16:51:41;;;;;;;;;;;;;;;20.32;55.74;101864.16;5063761;28;19924;-80
2022/10/04 17:02:34;;;;;;;;;;;;;;;20.29;56.28;101868.84;5087936;27;19912;-80